createdAt,value
2022-08-20T00:00:23.317Z,22.83
2022-08-20T00:02:54.889Z,23.60
2022-08-20T00:05:25.562Z,22.67
2022-08-20T00:07:53.360Z,23.02
2022-08-20T00:10:21.304Z,22.92
2022-08-20T00:12:49.708Z,23.23
2022-08-20T00:15:21.686Z,22.60
2022-08-20T00:17:50.502Z,22.85
2022-08-20T00:20:20.054Z,21.92
2022-08-20T00:22:47.867Z,23.25
2022-08-20T00:25:16.677Z,24.00
2022-08-20T00:27:44.552Z,23.35
2022-08-20T00:30:14.093Z,25.73
2022-08-20T00:32:49.644Z,26.25
2022-08-20T00:35:18.919Z,25.52
2022-08-20T00:37:46.714Z,26.15
2022-08-20T00:40:22.841Z,25.58
2022-08-20T00:42:53.835Z,26.13
2022-08-20T00:45:22.510Z,24.85
2022-08-20T00:47:51.945Z,25.38
2022-08-20T00:50:23.415Z,26.02
2022-08-20T00:52:53.132Z,28.38
2022-08-20T00:55:23.085Z,26.23
2022-08-20T00:58:01.387Z,31.83
2022-08-20T01:00:32.614Z,26.67
2022-08-20T01:03:02.095Z,27.25
2022-08-20T01:05:30.737Z,28.00
2022-08-20T01:07:59.427Z,28.48
2022-08-20T01:10:30.124Z,27.90
2022-08-20T01:13:00.062Z,26.25
2022-08-20T01:15:31.029Z,26.90
2022-08-20T01:18:01.932Z,30.03
2022-08-20T01:20:32.088Z,29.15
2022-08-20T01:23:21.458Z,28.05
2022-08-20T01:25:54.112Z,27.63
2022-08-20T01:28:27.804Z,30.23
2022-08-20T01:30:56.020Z,27.02
2022-08-20T01:33:45.568Z,29.88
2022-08-20T01:36:14.581Z,27.75
2022-08-20T01:38:53.183Z,28.60
2022-08-20T01:41:50.812Z,32.80
2022-08-20T01:44:20.120Z,30.95
2022-08-20T01:46:49.954Z,32.10
2022-08-20T01:49:22.843Z,28.77
2022-08-20T01:51:52.652Z,29.42
2022-08-20T01:54:21.046Z,31.88
2022-08-20T01:56:56.589Z,30.02
2022-08-20T01:59:24.552Z,30.48
2022-08-20T02:01:52.781Z,35.28
2022-08-20T02:04:21.089Z,32.75
2022-08-20T02:06:56.271Z,35.13
2022-08-20T02:09:25.805Z,29.85
2022-08-20T02:11:54.848Z,32.13
2022-08-20T02:14:22.907Z,29.35
2022-08-20T02:16:54.957Z,30.70
2022-08-20T02:19:25.378Z,30.10
2022-08-20T02:21:56.604Z,29.38
2022-08-20T02:24:24.299Z,27.80
2022-08-20T02:26:52.558Z,32.45
2022-08-20T02:29:21.593Z,29.92
2022-08-20T02:32:32.238Z,32.05
2022-08-20T02:34:37.155Z,27.98
2022-08-20T02:37:06.570Z,29.13
2022-08-20T02:39:34.877Z,31.23
2022-08-20T02:42:03.885Z,30.73
2022-08-20T02:44:32.966Z,30.27
2022-08-20T02:47:00.967Z,31.40
2022-08-20T02:49:28.759Z,34.17
2022-08-20T02:51:56.551Z,29.42
2022-08-20T02:54:24.398Z,29.10
2022-08-20T02:56:52.482Z,31.02
2022-08-20T02:59:20.202Z,30.17
2022-08-20T03:02:00.222Z,31.70
2022-08-20T03:04:29.046Z,31.45
2022-08-20T03:06:56.963Z,29.58
2022-08-20T03:09:24.819Z,32.22
2022-08-20T03:11:52.899Z,33.88
2022-08-20T03:14:20.847Z,28.77
2022-08-20T03:16:50.009Z,30.55
2022-08-20T03:19:17.968Z,30.15
2022-08-20T03:21:45.801Z,28.73
2022-08-20T03:24:13.760Z,31.90
2022-08-20T03:26:41.550Z,29.55
2022-08-20T03:29:09.801Z,27.83
2022-08-20T03:31:37.973Z,31.42
2022-08-20T03:34:07.130Z,28.27
2022-08-20T03:36:34.819Z,32.30
2022-08-20T03:39:07.149Z,29.08
2022-08-20T03:41:34.818Z,27.83
2022-08-20T03:44:02.589Z,33.22
2022-08-20T03:46:30.502Z,29.80
2022-08-20T03:49:00.671Z,31.60
2022-08-20T03:51:31.320Z,34.63
2022-08-20T03:54:00.006Z,28.63
2022-08-20T03:56:27.981Z,27.00
2022-08-20T03:58:55.832Z,27.38
2022-08-20T04:01:45.646Z,29.23
2022-08-20T04:04:12.442Z,26.95
2022-08-20T04:06:42.777Z,30.30
2022-08-20T04:09:11.883Z,27.73
2022-08-20T04:11:40.161Z,29.30
2022-08-20T04:14:08.024Z,28.05
2022-08-20T04:16:37.832Z,32.50
2022-08-20T04:19:06.261Z,27.77
2022-08-20T04:21:35.251Z,26.73
2022-08-20T04:24:05.934Z,26.00
2022-08-20T04:26:37.188Z,27.13
2022-08-20T04:29:05.382Z,26.30
2022-08-20T04:31:34.266Z,27.42
2022-08-20T04:34:03.260Z,27.15
2022-08-20T04:36:31.106Z,29.67
2022-08-20T04:38:58.939Z,27.08
2022-08-20T04:41:28.398Z,31.75
2022-08-20T04:43:58.049Z,26.63
2022-08-20T04:46:28.893Z,28.38
2022-08-20T04:48:57.438Z,26.58
2022-08-20T04:51:25.379Z,26.27
2022-08-20T04:53:56.386Z,28.35
2022-08-20T04:56:26.483Z,29.20
2022-08-20T04:58:57.570Z,27.25
2022-08-20T05:01:26.137Z,27.58
2022-08-20T05:03:55.398Z,26.27
2022-08-20T05:06:25.839Z,29.35
2022-08-20T05:08:53.744Z,32.58
2022-08-20T05:11:35.813Z,28.48
2022-08-20T05:14:08.528Z,30.35
2022-08-20T05:16:40.991Z,29.83
2022-08-20T05:19:12.162Z,30.88
2022-08-20T05:21:39.976Z,28.38
2022-08-20T05:24:08.504Z,28.23
2022-08-20T05:26:37.692Z,26.77
2022-08-20T05:29:07.647Z,32.35
2022-08-20T05:31:35.768Z,33.33
2022-08-20T05:34:03.981Z,27.63
2022-08-20T05:36:31.833Z,28.95
2022-08-20T05:39:02.874Z,27.90
2022-08-20T05:41:37.329Z,28.98
2022-08-20T05:44:10.136Z,29.40
2022-08-20T05:46:40.486Z,28.85
2022-08-20T05:49:20.726Z,28.73
2022-08-20T05:51:48.793Z,29.02
2022-08-20T05:54:17.169Z,26.38
2022-08-20T05:56:44.883Z,28.23
2022-08-20T05:59:14.175Z,27.98
2022-08-20T06:01:43.094Z,28.75
2022-08-20T06:04:28.038Z,28.88
2022-08-20T06:06:57.556Z,26.88
2022-08-20T06:09:31.844Z,25.60
2022-08-20T06:12:01.865Z,27.25
2022-08-20T06:14:41.721Z,28.20
2022-08-20T06:17:13.269Z,27.88
2022-08-20T06:19:44.659Z,31.80
2022-08-20T06:22:20.489Z,28.20
2022-08-20T06:24:53.178Z,25.65
2022-08-20T06:27:22.420Z,26.85
2022-08-20T06:29:52.412Z,25.17
2022-08-20T06:32:31.737Z,27.40
2022-08-20T06:35:02.083Z,26.35
2022-08-20T06:37:31.888Z,25.77
2022-08-20T06:40:03.649Z,25.85
2022-08-20T06:42:31.651Z,29.17
2022-08-20T06:45:04.744Z,27.33
2022-08-20T06:47:33.217Z,25.58
2022-08-20T06:50:01.277Z,26.63
2022-08-20T06:52:51.998Z,26.05
2022-08-20T06:55:18.309Z,26.60
2022-08-20T06:57:49.240Z,26.77
2022-08-20T07:00:20.816Z,24.73
2022-08-20T07:02:52.118Z,25.40
2022-08-20T07:05:20.124Z,25.60
2022-08-20T07:07:50.026Z,24.27
2022-08-20T07:10:19.222Z,25.77
2022-08-20T07:12:56.449Z,24.73
2022-08-20T07:15:27.006Z,24.70
2022-08-20T07:18:00.924Z,24.02
2022-08-20T07:20:29.994Z,23.42
2022-08-20T07:22:57.975Z,22.35
2022-08-20T07:25:27.780Z,22.73
2022-08-20T07:28:01.226Z,22.35
2022-08-20T07:30:56.024Z,22.38
2022-08-20T07:33:25.573Z,22.20
2022-08-20T07:35:53.735Z,22.33
2022-08-20T07:38:24.587Z,21.60
2022-08-20T07:40:55.591Z,21.65
2022-08-20T07:43:24.289Z,22.05
2022-08-20T07:45:55.764Z,21.10
2022-08-20T07:48:31.443Z,23.15
2022-08-20T07:51:01.942Z,21.52
2022-08-20T07:53:38.944Z,22.20
2022-08-20T07:56:08.840Z,23.95
2022-08-20T07:58:38.405Z,22.58
2022-08-20T08:01:08.541Z,20.63
2022-08-20T08:03:40.810Z,22.58
2022-08-20T08:06:28.523Z,22.48
2022-08-20T08:08:58.387Z,20.98
2022-08-20T08:11:26.970Z,22.02
2022-08-20T08:13:55.926Z,22.80
2022-08-20T08:16:25.164Z,23.65
2022-08-20T08:18:56.674Z,22.88
2022-08-20T08:21:27.622Z,22.40
2022-08-20T08:23:59.471Z,22.30
2022-08-20T08:26:29.156Z,21.63
2022-08-20T08:28:58.207Z,22.27
2022-08-20T08:31:29.014Z,21.35
2022-08-20T08:33:57.107Z,21.00
2022-08-20T08:36:26.867Z,20.95
2022-08-20T08:38:55.920Z,21.35
2022-08-20T08:41:29.958Z,20.52
2022-08-20T08:44:02.837Z,21.27
2022-08-20T08:46:38.759Z,21.80
2022-08-20T08:49:18.025Z,20.58
2022-08-20T08:52:07.790Z,23.85
2022-08-20T08:54:36.535Z,21.30
2022-08-20T08:57:08.408Z,23.08
2022-08-20T09:00:04.212Z,23.25
2022-08-20T09:02:43.541Z,22.38
2022-08-20T09:05:25.155Z,21.55
2022-08-20T09:07:54.902Z,22.45
2022-08-20T09:16:52.410Z,23.05
2022-08-20T09:19:27.113Z,23.98
2022-08-20T09:22:37.598Z,24.48
2022-08-20T09:25:57.301Z,22.88
2022-08-20T09:31:53.727Z,24.02
2022-08-20T09:34:22.812Z,23.50
2022-08-20T09:36:50.530Z,23.17
2022-08-20T09:39:18.184Z,23.85
2022-08-20T09:41:45.873Z,23.67
2022-08-20T09:44:13.568Z,21.83
2022-08-20T09:46:41.269Z,22.55
2022-08-20T09:49:10.508Z,21.75
2022-08-20T09:51:39.845Z,21.85
2022-08-20T09:54:07.787Z,22.27
2022-08-20T09:56:36.582Z,21.52
2022-08-20T09:59:04.291Z,21.88
2022-08-20T10:01:33.200Z,21.05
2022-08-20T10:04:01.017Z,20.90
2022-08-20T10:06:28.712Z,21.23
2022-08-20T10:08:57.727Z,22.02
2022-08-20T10:11:25.404Z,20.70
2022-08-20T10:13:53.125Z,20.70
2022-08-20T10:16:20.820Z,20.77
2022-08-20T10:18:49.294Z,19.02
2022-08-20T10:21:17.775Z,19.92
2022-08-20T10:23:45.442Z,19.88
2022-08-20T10:26:15.092Z,19.60
2022-08-20T10:28:42.749Z,18.55
2022-08-20T10:31:12.124Z,19.70
2022-08-20T10:33:40.642Z,23.00
2022-08-20T10:36:09.296Z,22.73
2022-08-20T10:38:36.995Z,21.83
2022-08-20T10:41:05.030Z,22.75
2022-08-20T10:43:34.301Z,21.70
2022-08-20T10:46:02.116Z,23.67
2022-08-20T10:48:30.723Z,23.00
2022-08-20T10:50:58.396Z,22.40
2022-08-20T10:53:26.099Z,22.02
2022-08-20T10:55:54.032Z,23.02
2022-08-20T10:58:23.825Z,22.27
2022-08-20T11:00:53.374Z,23.63
2022-08-20T11:03:21.486Z,21.70
2022-08-20T11:05:49.353Z,23.35
2022-08-20T11:08:25.137Z,23.27
2022-08-20T11:11:02.260Z,22.63
2022-08-20T11:13:29.884Z,24.73
2022-08-20T11:15:58.927Z,22.83
2022-08-20T11:18:26.558Z,20.17
2022-08-20T11:20:54.229Z,20.13
2022-08-20T11:23:21.849Z,21.45
2022-08-20T11:25:50.030Z,21.50
2022-08-20T11:28:31.368Z,21.38
2022-08-20T11:31:01.534Z,20.45
2022-08-20T11:33:29.445Z,21.30
2022-08-20T11:35:57.148Z,20.70
2022-08-20T11:38:24.803Z,21.23
2022-08-20T11:40:52.601Z,21.88
2022-08-20T11:43:20.298Z,20.05
2022-08-20T11:45:51.654Z,20.85
2022-08-20T11:48:20.929Z,22.73
2022-08-20T11:50:49.566Z,21.23
2022-08-20T11:53:17.710Z,20.80
2022-08-20T11:55:45.863Z,20.48
2022-08-20T11:58:13.728Z,19.48
2022-08-20T12:00:41.433Z,20.45
2022-08-20T12:03:11.497Z,21.55
2022-08-20T12:05:43.093Z,18.75
2022-08-20T12:08:27.478Z,19.00
2022-08-20T12:10:56.991Z,18.60
2022-08-20T12:13:30.898Z,17.55
2022-08-20T12:16:12.477Z,17.88
2022-08-20T12:18:40.250Z,18.73
2022-08-20T12:21:09.630Z,19.10
2022-08-20T12:23:37.303Z,18.17
2022-08-20T12:26:05.111Z,18.67
2022-08-20T12:28:32.799Z,18.05
2022-08-20T12:31:00.488Z,17.85
2022-08-20T12:33:28.160Z,17.60
2022-08-20T12:35:55.779Z,17.42
2022-08-20T12:38:24.748Z,15.98
2022-08-20T12:40:52.446Z,17.90
2022-08-20T12:43:24.652Z,16.92
2022-08-20T12:45:52.794Z,16.83
2022-08-20T12:48:21.148Z,16.08
2022-08-20T12:50:50.067Z,15.77
2022-08-20T12:53:17.723Z,15.73
2022-08-20T12:55:47.149Z,16.23
2022-08-20T12:58:14.762Z,17.40
2022-08-20T13:00:47.309Z,18.60
2022-08-20T13:03:19.454Z,17.55
2022-08-20T13:05:47.139Z,15.52
2022-08-20T13:08:15.167Z,13.80
2022-08-20T13:10:45.711Z,13.45
2022-08-20T13:13:20.045Z,22.77
2022-08-20T13:15:49.657Z,13.32
2022-08-20T13:18:17.513Z,11.95
2022-08-20T13:20:45.375Z,12.82
2022-08-20T13:23:13.147Z,12.23
2022-08-20T13:25:40.807Z,11.73
2022-08-20T13:28:08.577Z,11.07
2022-08-20T13:30:38.723Z,13.10
2022-08-20T13:33:06.474Z,11.80
2022-08-20T13:35:34.181Z,12.23
2022-08-20T13:38:01.857Z,12.75
2022-08-20T13:40:29.532Z,11.90
2022-08-20T13:42:57.357Z,11.50
2022-08-20T13:45:25.165Z,11.40
2022-08-20T13:47:55.793Z,11.98
2022-08-20T13:50:25.930Z,11.20
2022-08-20T13:52:53.956Z,11.15
2022-08-20T13:55:27.009Z,12.07
2022-08-20T13:57:55.816Z,12.30
2022-08-20T14:00:28.132Z,12.30
2022-08-20T14:03:01.278Z,13.10
2022-08-20T14:05:29.630Z,12.43
2022-08-20T14:07:57.354Z,11.35
2022-08-20T14:10:31.325Z,12.35
2022-08-20T14:12:59.316Z,12.00
2022-08-20T14:15:27.340Z,12.00
2022-08-20T14:17:56.866Z,11.70
2022-08-20T14:20:29.382Z,11.60
2022-08-20T14:23:01.118Z,11.70
2022-08-20T14:25:30.029Z,12.65
2022-08-20T14:27:57.752Z,12.05
2022-08-20T14:30:27.220Z,12.15
2022-08-20T14:32:55.794Z,12.75
2022-08-20T14:35:24.174Z,11.77
2022-08-20T14:37:55.490Z,12.23
2022-08-20T14:40:24.958Z,11.47
2022-08-20T14:42:52.756Z,13.07
2022-08-20T14:45:20.916Z,12.48
2022-08-20T14:47:53.754Z,11.98
2022-08-20T14:50:25.009Z,13.57
2022-08-20T14:52:54.706Z,12.50
2022-08-20T14:55:24.636Z,13.73
2022-08-20T14:57:52.530Z,12.95
2022-08-20T15:00:23.762Z,12.93
2022-08-20T15:02:51.527Z,13.37
2022-08-20T15:05:19.821Z,13.40
2022-08-20T15:07:51.809Z,13.20
2022-08-20T15:10:25.677Z,13.93
2022-08-20T15:12:53.481Z,13.52
2022-08-20T15:15:21.958Z,14.27
2022-08-20T15:17:51.440Z,13.43
2022-08-20T15:20:21.429Z,13.52
2022-08-20T15:22:49.999Z,13.23
2022-08-20T15:25:19.470Z,13.40
2022-08-20T15:27:48.642Z,13.02
2022-08-20T15:30:18.730Z,13.88
2022-08-20T15:32:49.284Z,12.32
2022-08-20T15:35:19.681Z,13.73
2022-08-20T15:37:49.024Z,13.57
2022-08-20T15:40:22.546Z,13.23
2022-08-20T15:42:54.898Z,13.93
2022-08-20T15:45:22.759Z,12.90
2022-08-20T15:47:52.959Z,13.07
2022-08-20T15:50:32.259Z,12.75
2022-08-20T15:53:03.944Z,12.93
2022-08-20T15:55:32.435Z,12.68
2022-08-20T15:58:06.706Z,13.48
2022-08-20T16:00:41.778Z,12.23
2022-08-20T16:03:27.682Z,12.30
2022-08-20T16:06:00.525Z,13.23
2022-08-20T16:08:38.061Z,11.48
2022-08-20T16:11:14.133Z,13.05
2022-08-20T16:13:47.934Z,12.07
2022-08-20T16:16:18.246Z,12.77
2022-08-20T16:18:48.552Z,12.90
2022-08-20T16:21:18.640Z,13.48
2022-08-20T16:23:46.553Z,13.93
2022-08-20T16:26:29.303Z,13.63
2022-08-20T16:29:11.238Z,12.25
2022-08-20T16:31:44.669Z,12.32
2022-08-20T16:34:33.672Z,13.05
2022-08-20T16:37:06.893Z,13.23
2022-08-20T16:42:05.953Z,12.32
2022-08-20T16:44:39.529Z,12.10
2022-08-20T16:47:17.521Z,12.40
2022-08-20T16:49:50.761Z,12.43
2022-08-20T16:52:18.536Z,12.48
2022-08-20T16:54:46.356Z,12.40
2022-08-20T16:57:17.386Z,12.38
2022-08-20T17:00:10.897Z,12.60
2022-08-20T17:02:50.521Z,12.88
2022-08-20T17:05:19.704Z,12.95
2022-08-20T17:07:51.292Z,13.35
2022-08-20T17:10:22.952Z,13.43
2022-08-20T17:12:56.054Z,12.75
2022-08-20T17:15:28.450Z,12.27
2022-08-20T17:17:56.813Z,13.57
2022-08-20T17:20:29.154Z,12.50
2022-08-20T17:23:11.198Z,13.73
2022-08-20T17:25:39.433Z,13.02
2022-08-20T17:28:14.976Z,12.32
2022-08-20T17:30:45.687Z,12.93
2022-08-20T17:33:25.370Z,13.35
2022-08-20T17:35:56.412Z,12.98
2022-08-20T17:38:29.250Z,13.65
2022-08-20T17:41:00.639Z,13.60
2022-08-20T17:43:30.999Z,13.23
2022-08-20T17:46:02.885Z,12.98
2022-08-20T17:48:33.461Z,13.00
2022-08-20T17:51:07.278Z,12.80
2022-08-20T17:53:37.544Z,11.90
2022-08-20T17:56:21.467Z,13.38
2022-08-20T17:58:54.123Z,12.70
2022-08-20T18:01:25.954Z,13.07
2022-08-20T18:03:54.629Z,11.95
2022-08-20T18:06:30.640Z,11.60
2022-08-20T18:09:04.757Z,11.85
2022-08-20T18:11:36.693Z,11.52
2022-08-20T18:14:18.673Z,12.52
2022-08-20T18:17:02.040Z,11.73
2022-08-20T18:19:56.840Z,11.70
2022-08-20T18:22:26.225Z,12.60
2022-08-20T18:24:58.972Z,12.70
2022-08-20T18:27:27.916Z,12.50
2022-08-20T18:29:58.860Z,12.02
2022-08-20T18:32:32.326Z,13.80
2022-08-20T18:35:15.110Z,12.75
2022-08-20T18:37:42.895Z,12.48
2022-08-20T18:40:20.005Z,12.48
2022-08-20T18:42:48.074Z,12.00
2022-08-20T18:45:28.770Z,12.05
2022-08-20T18:47:58.214Z,11.85
2022-08-20T18:50:44.484Z,12.27
2022-08-20T18:53:18.801Z,12.75
2022-08-20T18:55:47.950Z,13.10
2022-08-20T18:58:18.524Z,12.55
2022-08-20T19:00:52.166Z,12.63
2022-08-20T19:03:25.316Z,11.98
2022-08-20T19:06:18.696Z,12.32
2022-08-20T19:08:59.783Z,11.98
2022-08-20T19:12:01.890Z,12.73
2022-08-20T19:15:07.381Z,12.65
2022-08-20T19:17:59.279Z,12.80
2022-08-20T19:20:33.704Z,12.27
2022-08-20T19:23:07.443Z,12.60
2022-08-20T19:25:37.725Z,13.45
2022-08-20T19:28:15.729Z,12.73
2022-08-20T19:30:43.474Z,12.68
2022-08-20T19:33:11.812Z,12.48
2022-08-20T19:35:41.112Z,11.68
2022-08-20T19:38:15.575Z,12.38
2022-08-20T19:40:46.223Z,12.00
2022-08-20T19:43:21.851Z,13.23
2022-08-20T19:45:51.683Z,12.65
2022-08-20T19:48:32.683Z,11.93
2022-08-20T19:51:08.419Z,11.98
2022-08-20T19:53:38.377Z,11.55
2022-08-20T19:56:08.398Z,11.23
2022-08-20T19:58:37.421Z,12.25
2022-08-20T20:01:11.590Z,12.23
2022-08-20T20:03:39.273Z,11.98
2022-08-20T20:06:16.826Z,11.05
2022-08-20T20:08:51.491Z,12.35
2022-08-20T20:11:21.923Z,12.02
2022-08-20T20:13:49.976Z,11.38
2022-08-20T20:16:20.108Z,11.02
2022-08-20T20:19:09.085Z,11.93
2022-08-20T20:21:42.219Z,11.07
2022-08-20T20:24:10.747Z,10.85
2022-08-20T20:26:40.093Z,10.80
2022-08-20T20:29:10.296Z,10.43
2022-08-20T20:31:43.970Z,11.23
2022-08-20T20:34:14.729Z,11.05
2022-08-20T20:36:45.510Z,11.85
2022-08-20T20:39:27.458Z,11.43
2022-08-20T20:41:57.400Z,11.30
2022-08-20T20:44:26.830Z,10.77
2022-08-20T20:46:58.097Z,11.70
2022-08-20T20:49:27.488Z,10.83
2022-08-20T20:52:00.074Z,11.82
2022-08-20T20:54:31.051Z,11.02
2022-08-20T20:57:01.418Z,11.30
2022-08-20T20:59:29.447Z,11.70
2022-08-20T21:01:57.171Z,11.35
2022-08-20T21:04:25.549Z,11.95
2022-08-20T21:06:55.252Z,10.93
2022-08-20T21:09:25.475Z,11.63
2022-08-20T21:11:53.258Z,11.07
2022-08-20T21:14:21.150Z,10.85
2022-08-20T21:16:49.007Z,11.45
2022-08-20T21:19:16.883Z,11.43
2022-08-20T21:21:44.927Z,11.38
2022-08-20T21:24:12.721Z,11.40
2022-08-20T21:26:42.305Z,12.40
2022-08-20T21:29:12.446Z,11.63
2022-08-20T21:31:43.824Z,11.02
2022-08-20T21:34:12.984Z,11.27
2022-08-20T21:36:40.836Z,10.50
2022-08-20T21:39:08.769Z,11.70
2022-08-20T21:41:37.178Z,10.43
2022-08-20T21:44:11.674Z,10.57
2022-08-20T21:46:39.351Z,11.73
2022-08-20T21:49:07.780Z,10.48
2022-08-20T21:51:36.054Z,11.00
2022-08-20T21:54:04.157Z,10.65
2022-08-20T21:56:33.780Z,10.70
2022-08-20T21:59:02.109Z,10.55
2022-08-20T22:01:32.617Z,10.02
2022-08-20T22:04:00.869Z,11.27
2022-08-20T22:06:28.645Z,10.90
2022-08-20T22:08:56.373Z,11.10
2022-08-20T22:11:24.098Z,11.82
2022-08-20T22:13:52.403Z,11.88
2022-08-20T22:16:21.744Z,12.20
2022-08-20T22:18:52.335Z,10.80
2022-08-20T22:21:22.082Z,11.20
2022-08-20T22:23:50.130Z,11.27
2022-08-20T22:26:19.328Z,10.95
2022-08-20T22:28:50.986Z,11.45
2022-08-20T22:31:20.422Z,10.55
2022-08-20T22:33:49.780Z,11.52
2022-08-20T22:36:18.271Z,10.82
2022-08-20T22:38:45.981Z,10.90
2022-08-20T22:41:20.961Z,11.05
2022-08-20T22:43:56.730Z,11.45
2022-08-20T22:46:26.470Z,11.02
2022-08-20T22:48:56.204Z,11.25
2022-08-20T22:51:25.637Z,11.23
2022-08-20T22:53:53.322Z,10.75
2022-08-20T22:56:21.975Z,10.77
2022-08-20T22:58:50.993Z,11.07
2022-08-20T23:01:18.944Z,10.77
2022-08-20T23:03:46.975Z,11.85
2022-08-20T23:06:16.253Z,12.07
2022-08-20T23:08:45.116Z,10.23
2022-08-20T23:11:13.042Z,10.77
2022-08-20T23:13:40.790Z,11.77
2022-08-20T23:16:08.666Z,10.65
2022-08-20T23:18:36.586Z,10.23
2022-08-20T23:21:04.682Z,10.48
2022-08-20T23:23:34.102Z,9.75
2022-08-20T23:26:02.134Z,10.77
2022-08-20T23:28:29.869Z,10.50
2022-08-20T23:30:57.608Z,10.57
2022-08-20T23:33:25.614Z,10.15
2022-08-20T23:35:53.528Z,10.80
2022-08-20T23:38:21.742Z,10.07
2022-08-20T23:40:50.943Z,11.35
2022-08-20T23:43:19.103Z,10.35
2022-08-20T23:45:47.392Z,10.93
2022-08-20T23:48:15.497Z,10.82
2022-08-20T23:50:43.553Z,10.82
2022-08-20T23:53:12.118Z,10.50
2022-08-20T23:55:40.025Z,10.15
2022-08-20T23:58:09.310Z,11.38
